Akron, OH (44301)

3:08 PM EST on February 22, 2017 (GMT -0500)
Firestone Park | | Change Station

Elev 1115 ft 41.05 °N, 81.52 °W | Updated 47 seconds ago

Overcast
Overcast
58.2 °F
Feels Like 58.2 °F
N
2.0
Wind Variable Wind from West

Today
High -- | Low -- °F
--% Chance of Precip.
Yesterday
High -- | Low -- °F
Precip. -- in
Pressure 29.82 in
Visibility 10.0 miles
Clouds Overcast 1400 ft
Dew Point 54 °F
Humidity 86%
Rainfall 0.27 in
Snow Depth Not available.
7:10 AM 6:09 PM
Waning Crescent, 15% visible
METAR KAKR 221954Z AUTO 22007KT 10SM OVC014 16/13 A2983 RMK AO2 SLP098 T01560128 TSNO
Pressure 29.82 in
Visibility 10.0 miles
Clouds Overcast 1400 ft
Dew Point 54 °F
Humidity 86%
Rainfall 0.27 in
Snow Depth Not available.
7:10 AM 6:09 PM
Waning Crescent, 15% visible
METAR KAKR 221954Z AUTO 22007KT 10SM OVC014 16/13 A2983 RMK AO2 SLP098 T01560128 TSNO

Get Your Daily Forecast Email!

Thanks for signing up!

Be on the lookout for a verification email in your inbox.

You'll start receiving the daily forecast at 8 AM.

×

10-Day Weather Forecast

Almanac

Astronomy

Feb. 22, 2017 Rise Set
Actual Time
Civil Twilight
Nautical Twilight
Astronomical Twilight
Moon
Length of Visible Light
Length of Day
Tomorrow will be .
, % of the Moon is Illuminated

Today's Extremes

State Highs State Lows

Community

WunderPhotos

Upload Photos

1,962,540 photos uploaded!

WunderBlog® & News

Nearby

Air Quality

  Air Quality AQ Index Pollutant
Not available.

Snow Depth

Station Depth Elevation

Earthquake Activity

City Distance Mag. Time & Date
Minimum magnitude displayed is 2.5.

Coastal Water Temperatures

Place Temperature

Stations

Nearby Weather Stations

Station Location Temp. Windchill Dew Point Humidity Wind Precip. Elev Updated Type
                   

Watches & Warnings

There are currently no watches in effect.